Time;durP1;ratioP1;P1;durP2;ratioP2;P2;SDS_P1;SDS_P2;PMS_P1;PMS_P2;Temp;Humidity;BMP_temperature;BMP_pressure;BME280_temperature;BME280_humidity;BME280_pressure;Samples;Min_cycle;Max_cycle;Signal;HPM_P1;HPM_P2
2023/09/07 00:04:38;;;;;;;144.48;136.75;;;;;;;19.68;100.00;101873.13;10457488;28;20064;-68
2023/09/07 00:09:38;;;;;;;154.45;146.82;;;;;;;19.71;100.00;101853.41;10472742;28;20374;-68
2023/09/07 00:14:38;;;;;;;143.90;136.93;;;;;;;19.65;100.00;101857.09;10457849;28;20160;-68
2023/09/07 00:19:39;;;;;;;179.40;170.07;;;;;;;19.56;100.00;101853.00;10456811;28;20040;-68
2023/09/07 00:24:39;;;;;;;136.70;129.63;;;;;;;19.53;100.00;101861.72;10456268;28;20055;-68
2023/09/07 00:29:40;;;;;;;140.77;133.90;;;;;;;19.49;100.00;101857.72;10455953;28;20464;-68
2023/09/07 00:34:40;;;;;;;127.00;120.53;;;;;;;19.36;100.00;101855.19;10456234;28;20151;-67
2023/09/07 00:39:40;;;;;;;131.43;124.82;;;;;;;19.25;100.00;101860.41;10454965;28;20067;-68
2023/09/07 00:44:41;;;;;;;141.18;134.20;;;;;;;19.12;100.00;101862.50;10456090;28;20074;-68
2023/09/07 00:49:41;;;;;;;129.68;122.78;;;;;;;18.96;100.00;101855.72;10455856;28;20060;-68
2023/09/07 00:54:42;;;;;;;137.30;130.35;;;;;;;18.84;100.00;101849.31;10453927;28;20039;-68
2023/09/07 00:59:42;;;;;;;128.63;121.10;;;;;;;18.75;100.00;101843.28;10454340;28;20415;-68
2023/09/07 01:04:43;;;;;;;155.43;147.70;;;;;;;18.74;100.00;101842.47;10453421;28;20496;-68
2023/09/07 01:09:43;;;;;;;194.13;184.95;;;;;;;18.67;100.00;101841.69;10453740;28;20052;-67
2023/09/07 01:14:44;;;;;;;185.85;176.57;;;;;;;18.55;99.98;101838.00;10437451;28;20376;-68
2023/09/07 01:19:44;;;;;;;197.07;187.85;;;;;;;18.45;99.76;101840.44;10454652;28;20087;-68
2023/09/07 01:24:45;;;;;;;189.70;180.73;;;;;;;18.28;99.96;101838.28;10436360;28;20123;-68
2023/09/07 01:29:45;;;;;;;95.13;88.97;;;;;;;18.21;100.00;101834.75;10453475;28;20028;-68
2023/09/07 01:34:46;;;;;;;114.93;109.00;;;;;;;18.24;100.00;101836.22;10453538;28;20044;-68
2023/09/07 01:39:46;;;;;;;116.93;110.88;;;;;;;18.28;100.00;101827.31;10454401;28;20457;-68
2023/09/07 01:44:47;;;;;;;116.70;110.38;;;;;;;18.34;100.00;101834.63;10457880;28;20088;-68
2023/09/07 01:49:47;;;;;;;88.53;83.65;;;;;;;18.34;100.00;101837.34;10453357;28;20060;-69
2023/09/07 01:54:48;;;;;;;125.25;117.93;;;;;;;18.36;100.00;101834.41;10454610;28;20036;-69
2023/09/07 01:59:48;;;;;;;79.53;74.93;;;;;;;18.33;100.00;101834.84;10455038;28;20389;-68
2023/09/07 02:04:48;;;;;;;79.72;75.18;;;;;;;18.29;100.00;101831.72;10452429;28;20053;-69
2023/09/07 02:09:49;;;;;;;77.07;72.70;;;;;;;18.35;100.00;101833.56;10454744;28;20101;-68
2023/09/07 02:14:49;;;;;;;75.53;70.95;;;;;;;18.32;100.00;101836.78;10453214;28;20029;-68
2023/09/07 02:19:50;;;;;;;95.97;90.78;;;;;;;18.32;100.00;101833.19;10453907;28;20060;-68
2023/09/07 02:24:50;;;;;;;95.38;90.07;;;;;;;18.33;100.00;101829.38;10457091;28;20033;-68
2023/09/07 02:29:51;;;;;;;100.65;94.80;;;;;;;18.37;100.00;101833.34;10463512;28;20028;-68
2023/09/07 02:34:51;;;;;;;106.05;100.18;;;;;;;18.31;100.00;101831.50;10444104;28;20102;-69
2023/09/07 02:39:51;;;;;;;74.50;70.07;;;;;;;18.27;100.00;101842.06;10477482;28;20037;-69
2023/09/07 02:44:52;;;;;;;77.07;72.05;;;;;;;18.19;100.00;101842.38;10461201;28;20049;-69
2023/09/07 02:49:52;;;;;;;71.20;67.00;;;;;;;18.15;100.00;101838.41;10477025;28;20483;-68
2023/09/07 02:54:53;;;;;;;73.50;68.80;;;;;;;18.15;100.00;101843.88;10431984;28;20460;-69
2023/09/07 02:59:53;;;;;;;68.18;64.05;;;;;;;18.15;100.00;101838.41;10461810;28;20055;-69
2023/09/07 03:04:54;;;;;;;70.88;66.55;;;;;;;18.12;100.00;101842.44;10459810;28;20456;-68
2023/09/07 03:09:56;;;;;;;69.63;65.57;;;;;;;18.16;100.00;101839.25;10427480;28;20029;-68
2023/09/07 03:14:56;;;;;;;78.25;73.68;;;;;;;18.09;100.00;101844.78;10460723;28;20120;-69
2023/09/07 03:19:57;;;;;;;81.72;77.00;;;;;;;18.10;100.00;101846.47;10461233;28;20119;-67
2023/09/07 03:24:57;;;;;;;85.85;80.40;;;;;;;18.05;100.00;101836.16;10475362;28;20029;-69
2023/09/07 03:29:57;;;;;;;86.40;81.38;;;;;;;18.06;100.00;101834.25;10458622;28;20036;-69
2023/09/07 03:35:06;;;;;;;146.60;138.48;;;;;;;17.95;100.00;101829.53;10461155;28;20087;-69
2023/09/07 03:40:08;;;;;;;105.95;99.82;;;;;;;17.93;100.00;101834.38;10460249;28;20384;-68
2023/09/07 03:45:09;;;;;;;192.68;182.23;;;;;;;17.86;100.00;101832.53;10458000;28;20127;-68
2023/09/07 03:50:10;;;;;;;197.02;186.63;;;;;;;17.85;100.00;101844.56;10441157;28;20044;-69
2023/09/07 03:55:10;;;;;;;238.88;226.88;;;;;;;17.80;100.00;101849.84;10459232;28;20037;-69
2023/09/07 04:00:12;;;;;;;417.33;395.25;;;;;;;17.74;100.00;101848.00;10458363;28;20537;-69
2023/09/07 04:05:12;;;;;;;454.42;430.58;;;;;;;17.70;100.00;101852.22;10441016;28;20037;-67
2023/09/07 04:10:13;;;;;;;468.55;444.48;;;;;;;17.67;100.00;101855.41;10457533;28;20029;-68
2023/09/07 04:15:13;;;;;;;545.97;516.70;;;;;;;17.64;100.00;101859.44;10458804;28;20040;-68
2023/09/07 04:20:13;;;;;;;572.60;540.92;;;;;;;17.61;100.00;101859.03;10460811;28;20072;-69
2023/09/07 04:25:14;;;;;;;642.30;606.00;;;;;;;17.59;100.00;101859.25;10440835;28;20041;-69
2023/09/07 04:30:14;;;;;;;714.88;671.22;;;;;;;17.57;100.00;101853.16;10457998;28;20056;-69
2023/09/07 04:35:15;;;;;;;724.55;679.63;;;;;;;17.52;100.00;101853.00;10456188;28;20461;-71
2023/09/07 04:40:15;;;;;;;754.03;706.28;;;;;;;17.53;100.00;101856.56;10411524;28;20144;-70
2023/09/07 04:45:16;;;;;;;789.65;738.20;;;;;;;17.53;100.00;101862.88;10456727;28;20064;-71
2023/09/07 04:50:16;;;;;;;795.97;744.28;;;;;;;17.52;100.00;101868.59;10455193;28;20032;-69
2023/09/07 04:55:17;;;;;;;800.63;748.38;;;;;;;17.47;100.00;101871.97;10454516;28;20025;-65
2023/09/07 05:00:18;;;;;;;806.33;753.70;;;;;;;17.43;100.00;101868.84;10456044;28;20036;-65
2023/09/07 05:05:18;;;;;;;811.67;758.63;;;;;;;17.37;100.00;101879.84;10405605;28;20048;-68
2023/09/07 05:10:18;;;;;;;828.40;773.90;;;;;;;17.36;100.00;101881.72;10456458;28;20116;-66
2023/09/07 05:15:19;;;;;;;820.85;765.38;;;;;;;17.31;100.00;101877.97;10455849;28;20140;-66
2023/09/07 05:20:19;;;;;;;826.38;770.25;;;;;;;17.25;100.00;101881.56;10405507;28;20136;-66
2023/09/07 05:25:20;;;;;;;815.33;761.67;;;;;;;17.24;100.00;101880.75;10454389;28;20037;-67
2023/09/07 05:30:20;;;;;;;813.08;759.72;;;;;;;17.25;100.00;101874.19;10436702;28;20388;-67
2023/09/07 05:35:21;;;;;;;779.70;728.92;;;;;;;17.28;100.00;101878.41;10455228;28;20446;-67
2023/09/07 05:40:21;;;;;;;754.45;706.28;;;;;;;17.40;100.00;101893.91;10453193;28;20388;-67
2023/09/07 05:45:22;;;;;;;787.40;737.05;;;;;;;17.48;100.00;101886.50;10453868;28;20076;-66
2023/09/07 05:50:22;;;;;;;789.70;737.78;;;;;;;17.61;100.00;101894.63;10453622;28;20082;-67
2023/09/07 05:55:23;;;;;;;811.75;758.60;;;;;;;17.67;100.00;101891.00;10454541;28;20130;-69
2023/09/07 06:00:23;;;;;;;816.53;762.25;;;;;;;18.11;100.00;101897.47;10454704;28;20476;-67
2023/09/07 06:05:23;;;;;;;839.92;784.40;;;;;;;19.15;100.00;101895.81;10454292;28;20040;-68
2023/09/07 06:10:24;;;;;;;288.05;273.25;;;;;;;19.92;100.00;101892.44;10453191;28;20110;-67
2023/09/07 06:15:25;;;;;;;556.10;522.90;;;;;;;20.57;100.00;101903.41;10452998;28;20029;-67
2023/09/07 06:20:26;;;;;;;650.40;612.20;;;;;;;21.18;100.00;101903.88;10454584;28;20033;-66
2023/09/07 06:25:27;;;;;;;543.00;512.55;;;;;;;21.69;100.00;101909.59;10452935;28;20071;-66
2023/09/07 06:30:27;;;;;;;612.25;576.72;;;;;;;22.25;100.00;101910.63;10452959;28;20045;-67
2023/09/07 06:35:28;;;;;;;492.95;465.25;;;;;;;22.79;100.00;101896.25;10453081;28;20099;-66
2023/09/07 06:40:28;;;;;;;376.85;356.75;;;;;;;23.20;100.00;101906.75;10417876;28;20041;-67
2023/09/07 06:45:29;;;;;;;82.00;77.20;;;;;;;23.65;100.00;101905.59;10452484;28;20061;-66
2023/09/07 06:50:29;;;;;;;174.05;165.75;;;;;;;24.01;99.17;101908.72;10435768;28;20477;-67
2023/09/07 06:55:30;;;;;;;196.75;187.45;;;;;;;24.34;94.89;101904.84;10452250;28;20044;-67
2023/09/07 07:00:30;;;;;;;291.63;277.92;;;;;;;24.59;91.76;101900.59;10452852;28;20033;-66
2023/09/07 07:05:33;;;;;;;423.33;402.00;;;;;;;25.00;87.02;101906.38;10450837;28;20045;-66
2023/09/07 07:10:34;;;;;;;280.23;267.20;;;;;;;25.50;83.98;101910.47;10454394;28;20484;-68
2023/09/07 07:15:35;;;;;;;297.08;282.90;;;;;;;25.69;79.23;101902.47;10459873;28;20083;-67
2023/09/07 07:20:37;;;;;;;399.08;379.88;;;;;;;25.60;77.31;101904.13;10459473;28;20033;-66
2023/09/07 07:25:37;;;;;;;328.80;313.95;;;;;;;25.61;76.13;101900.22;10460017;28;20040;-67
2023/09/07 07:30:40;;;;;;;535.33;506.73;;;;;;;25.78;73.67;101894.41;10458526;28;20033;-67
2023/09/07 07:35:40;;;;;;;453.55;430.98;;;;;;;26.22;73.90;101894.75;10457400;28;20424;-66
2023/09/07 07:40:41;;;;;;;338.95;322.95;;;;;;;26.49;68.22;101883.38;10459084;28;20037;-67
2023/09/07 07:45:42;;;;;;;438.60;417.33;;;;;;;26.69;69.03;101888.03;10457051;28;20057;-68
2023/09/07 07:50:43;;;;;;;360.65;343.95;;;;;;;26.62;65.47;101880.00;10458107;28;20040;-66
2023/09/07 07:55:43;;;;;;;278.85;266.30;;;;;;;26.99;64.60;101875.13;10458179;28;20033;-66
2023/09/07 08:00:47;;;;;;;385.17;366.83;;;;;;;27.24;62.46;101866.69;10458033;28;20033;-67
2023/09/07 08:05:47;;;;;;;386.98;368.90;;;;;;;27.52;60.34;101879.03;10457273;28;20076;-67
2023/09/07 08:10:48;;;;;;;338.77;323.48;;;;;;;27.79;59.98;101877.75;10457660;28;20067;-66
2023/09/07 08:15:48;;;;;;;332.75;317.30;;;;;;;28.34;57.02;101883.16;10440797;28;20036;-67
2023/09/07 08:20:49;;;;;;;240.82;229.45;;;;;;;28.49;55.42;101880.22;10438141;28;20086;-66
2023/09/07 08:25:52;;;;;;;308.60;295.00;;;;;;;28.80;56.90;101875.13;10456762;28;20029;-67
2023/09/07 08:30:54;;;;;;;217.98;208.07;;;;;;;28.84;54.68;101865.03;10454824;28;20112;-67
2023/09/07 08:35:55;;;;;;;257.48;245.48;;;;;;;29.13;53.60;101859.44;10455601;28;20078;-66
2023/09/07 08:40:59;;;;;;;309.15;295.77;;;;;;;29.49;52.04;101872.03;10438889;28;20075;-67
2023/09/07 08:46:14;;;;;;;216.63;207.25;;;;;;;29.48;51.61;101856.41;10454860;28;20045;-67
2023/09/07 08:51:18;;;;;;;224.00;213.60;;;;;;;29.63;51.05;101859.00;10454800;28;20029;-67
2023/09/07 08:56:19;;;;;;;389.00;370.25;;;;;;;29.85;50.43;101853.59;10438602;28;20465;-67
2023/09/07 09:01:21;;;;;;;313.65;299.63;;;;;;;30.34;51.25;101849.41;10438361;28;20029;-68
2023/09/07 09:06:24;;;;;;;192.25;184.07;;;;;;;30.87;48.50;101848.09;10453809;28;20356;-67
2023/09/07 09:11:25;;;;;;;289.33;275.33;;;;;;;30.51;46.35;101846.00;10454422;28;20039;-67
2023/09/07 09:16:25;;;;;;;182.27;173.95;;;;;;;30.59;47.79;101850.84;10454826;28;20116;-66
2023/09/07 09:21:26;;;;;;;191.57;183.70;;;;;;;30.70;48.43;101847.88;10438212;28;20127;-67
2023/09/07 09:26:26;;;;;;;317.25;300.75;;;;;;;31.01;46.05;101846.09;10438217;28;20116;-66
2023/09/07 09:31:27;;;;;;;137.10;131.30;;;;;;;30.77;47.45;101851.13;10456971;28;20033;-68
2023/09/07 09:36:33;;;;;;;144.85;137.32;;;;;;;31.43;46.53;101848.81;10456892;28;20464;-66
2023/09/07 09:41:36;;;;;;;172.80;165.40;;;;;;;31.55;45.01;101857.50;10453925;28;20395;-66
2023/09/07 09:46:37;;;;;;;119.90;114.45;;;;;;;31.60;45.74;101848.16;10436501;28;20041;-67
2023/09/07 09:51:37;;;;;;;139.00;132.63;;;;;;;31.47;45.12;101842.28;10436448;28;20368;-67
2023/09/07 09:56:37;;;;;;;156.10;149.30;;;;;;;31.48;46.01;101843.09;10436599;28;20484;-65
2023/09/07 10:01:45;;;;;;;97.80;93.53;;;;;;;31.50;45.73;101836.06;10453318;28;20039;-66
2023/09/07 10:07:05;;;;;;;168.85;160.93;;;;;;;31.61;44.01;101830.19;10436532;28;20033;-66
2023/09/07 10:12:10;;;;;;;98.05;93.82;;;;;;;31.71;45.33;101825.16;10453420;28;20128;-68
2023/09/07 10:17:11;;;;;;;118.10;112.78;;;;;;;31.95;44.73;101822.06;10435966;28;20106;-67
2023/09/07 10:22:11;;;;;;;139.60;133.73;;;;;;;32.10;43.96;101822.78;10435500;28;20091;-68
2023/09/07 10:27:12;;;;;;;405.88;383.35;;;;;;;31.84;42.79;101836.63;10419517;28;20037;-67
2023/09/07 10:32:14;;;;;;;305.77;289.58;;;;;;;31.40;43.30;101829.88;10436751;28;20037;-67
2023/09/07 10:37:15;;;;;;;244.65;232.27;;;;;;;31.66;42.75;101822.50;10451077;28;20029;-67
2023/09/07 10:42:25;;;;;;;214.43;205.30;;;;;;;31.93;42.84;101815.13;10451619;28;20429;-67
2023/09/07 10:47:26;;;;;;;178.63;170.63;;;;;;;32.13;43.37;101828.59;10457603;28;20515;-68
2023/09/07 10:52:28;;;;;;;193.52;185.35;;;;;;;32.46;41.58;101825.47;10458957;28;20029;-67
2023/09/07 10:57:28;;;;;;;262.67;244.95;;;;;;;32.15;41.48;101809.47;10460573;28;20039;-67
2023/09/07 11:02:29;;;;;;;181.65;174.18;;;;;;;32.27;41.06;101808.88;10458413;28;20123;-67
2023/09/07 11:07:29;;;;;;;511.10;480.15;;;;;;;32.40;39.90;101793.09;10458721;28;20114;-66
2023/09/07 11:12:35;;;;;;;198.52;190.18;;;;;;;32.75;41.61;101790.44;10459690;28;20048;-66
2023/09/07 11:17:42;;;;;;;;;;;;;;;32.98;40.02;101786.34;10443811;28;20029;-67
2023/09/07 11:22:42;;;;;;;102.47;97.72;;;;;;;32.94;40.20;101778.91;10459581;28;20275;-67
2023/09/07 11:27:43;;;;;;;158.00;151.05;;;;;;;32.97;38.93;101778.28;10458162;28;20048;-67
2023/09/07 11:32:44;;;;;;;115.28;109.22;;;;;;;33.06;39.06;101771.53;10458484;28;20037;-65
2023/09/07 11:37:51;;;;;;;250.88;237.75;;;;;;;33.27;38.21;101774.47;10458632;28;20437;-67
2023/09/07 11:42:52;;;;;;;101.90;97.60;;;;;;;33.17;39.54;101760.78;10456735;28;20033;-66
2023/09/07 11:47:53;;;;;;;223.50;213.90;;;;;;;33.15;38.93;101767.88;10461055;28;20047;-67
2023/09/07 11:52:54;;;;;;;345.40;329.30;;;;;;;33.11;38.67;101757.31;10459777;28;20192;-68
2023/09/07 11:57:54;;;;;;;451.95;429.02;;;;;;;33.08;39.06;101752.34;10458318;28;20439;-68
2023/09/07 12:02:55;;;;;;;374.30;357.83;;;;;;;33.06;38.82;101751.88;10441525;28;20036;-67
2023/09/07 12:07:56;;;;;;;450.10;427.48;;;;;;;33.20;38.84;101742.47;10458418;28;20481;-68
2023/09/07 12:12:56;;;;;;;367.00;351.67;;;;;;;33.29;39.35;101724.44;10458701;28;20037;-68
2023/09/07 12:17:57;;;;;;;644.60;603.13;;;;;;;33.53;37.26;101734.34;10457906;28;20081;-68
2023/09/07 12:22:57;;;;;;;502.70;470.95;;;;;;;33.46;37.95;101717.97;10457311;28;20518;-67
2023/09/07 12:27:58;;;;;;;313.52;300.40;;;;;;;33.83;37.79;101729.66;10457329;28;20068;-67
2023/09/07 12:32:58;;;;;;;165.20;150.77;;;;;;;33.70;37.47;101720.28;10457152;28;20499;-67
2023/09/07 12:37:59;;;;;;;131.05;125.25;;;;;;;33.72;35.77;101719.91;10455629;28;20262;-67
2023/09/07 12:43:00;;;;;;;115.15;107.88;;;;;;;33.69;37.42;101714.97;10456055;28;20056;-67
2023/09/07 12:48:00;;;;;;;185.25;173.70;;;;;;;33.76;36.09;101712.47;10456743;28;20079;-67
2023/09/07 12:53:01;;;;;;;81.28;77.68;;;;;;;33.73;36.81;101710.34;10455929;28;20138;-66
2023/09/07 12:58:01;;;;;;;632.10;510.20;;;;;;;33.54;36.14;101708.75;10454417;28;20473;-68
2023/09/07 13:03:02;;;;;;;87.03;83.28;;;;;;;33.35;37.22;101705.47;10453997;28;20033;-67
2023/09/07 13:08:03;;;;;;;157.85;149.68;;;;;;;33.30;37.38;101686.78;10455342;28;20040;-69
2023/09/07 13:13:03;;;;;;;247.75;233.32;;;;;;;33.14;36.42;101680.06;10455293;28;20087;-67
2023/09/07 13:18:04;;;;;;;117.70;112.75;;;;;;;33.03;36.68;101678.75;10471359;28;20041;-68
2023/09/07 13:23:04;;;;;;;193.43;180.02;;;;;;;33.29;37.00;101685.16;10453009;28;20060;-66
2023/09/07 13:28:05;;;;;;;245.70;233.25;;;;;;;33.08;36.65;101665.34;10454194;28;20036;-67
2023/09/07 13:33:05;;;;;;;120.80;115.53;;;;;;;33.35;37.40;101654.91;10454993;28;20418;-67
2023/09/07 13:38:06;;;;;;;262.17;247.52;;;;;;;33.24;36.27;101656.41;10456576;28;20033;-67
2023/09/07 13:43:06;;;;;;;112.15;107.38;;;;;;;33.03;37.07;101642.28;10454582;28;20160;-67
2023/09/07 13:48:07;;;;;;;173.30;165.23;;;;;;;32.86;37.02;101640.25;10455700;28;20512;-68
2023/09/07 13:53:07;;;;;;;136.18;127.72;;;;;;;32.76;37.28;101635.00;10453189;28;20045;-67
2023/09/07 13:58:07;;;;;;;143.32;136.10;;;;;;;32.62;36.87;101641.59;10453529;28;20040;-66
2023/09/07 14:03:08;;;;;;;411.75;384.92;;;;;;;32.40;36.69;101636.13;10454620;28;20037;-67
2023/09/07 14:08:08;;;;;;;217.80;208.15;;;;;;;32.33;35.99;101627.38;10456826;28;20056;-66
2023/09/07 14:13:09;;;;;;;101.25;96.90;;;;;;;32.38;37.58;101633.63;10471380;28;20036;-67
2023/09/07 14:18:10;;;;;;;332.67;313.85;;;;;;;32.34;36.35;101629.00;10453881;28;20047;-66
2023/09/07 14:23:10;;;;;;;289.55;270.35;;;;;;;32.27;37.22;101620.28;10461275;28;20040;-67
2023/09/07 14:28:11;;;;;;;169.90;162.88;;;;;;;32.15;37.15;101618.91;10460695;28;20033;-68
2023/09/07 14:33:11;;;;;;;197.40;187.57;;;;;;;32.05;36.87;101630.44;10462149;28;20142;-67
2023/09/07 14:38:11;;;;;;;312.58;296.77;;;;;;;32.11;35.68;101625.50;10460879;28;20037;-66
2023/09/07 14:43:13;;;;;;;174.10;166.65;;;;;;;31.96;36.20;101621.19;10461514;28;20365;-68
2023/09/07 14:48:13;;;;;;;164.15;157.48;;;;;;;31.87;37.40;101629.53;10460133;28;20036;-67
2023/09/07 14:53:14;;;;;;;105.00;100.57;;;;;;;31.36;38.33;101628.16;10459234;28;20033;-67
2023/09/07 14:58:14;;;;;;;69.35;66.38;;;;;;;30.46;40.35;101624.47;10461337;28;20084;-66
2023/09/07 15:03:15;;;;;;;92.32;88.50;;;;;;;29.85;41.28;101618.22;10461305;28;20040;-68
2023/09/07 15:08:15;;;;;;;152.65;143.93;;;;;;;29.40;42.47;101618.78;10443801;28;20029;-66
2023/09/07 15:13:15;;;;;;;390.25;370.75;;;;;;;29.15;42.78;101620.06;10459867;28;20163;-67
2023/09/07 15:18:16;;;;;;;354.88;340.05;;;;;;;29.12;43.26;101617.88;10441670;28;20082;-67
2023/09/07 15:23:16;;;;;;;243.77;232.18;;;;;;;29.02;43.81;101620.84;10458611;28;20029;-67
2023/09/07 15:28:20;;;;;;;82.05;78.53;;;;;;;28.88;43.58;101623.56;10459161;28;20421;-67
2023/09/07 15:33:20;;;;;;;267.67;255.60;;;;;;;28.68;44.74;101619.13;10457894;28;20028;-67
2023/09/07 15:38:22;;;;;;;302.58;288.52;;;;;;;28.57;45.21;101630.75;10459096;28;20033;-68
2023/09/07 15:43:22;;;;;;;378.20;356.10;;;;;;;28.49;45.42;101630.31;10458116;28;20468;-68
2023/09/07 15:48:22;;;;;;;143.60;137.70;;;;;;;28.49;45.34;101621.94;10458328;28;20040;-67
2023/09/07 15:53:23;;;;;;;213.23;196.88;;;;;;;28.46;45.98;101619.75;10441176;28;20124;-67
2023/09/07 15:58:25;;;;;;;91.55;87.65;;;;;;;28.34;46.59;101616.56;10457492;28;20033;-67
2023/09/07 16:03:25;;;;;;;139.75;133.52;;;;;;;28.36;47.07;101622.63;10473741;28;20167;-67
2023/09/07 16:08:28;;;;;;;117.82;112.57;;;;;;;28.21;47.00;101607.00;10457648;28;20131;-67
2023/09/07 16:13:28;;;;;;;207.45;197.35;;;;;;;28.14;47.51;101592.59;10458013;28;20464;-68
2023/09/07 16:18:28;;;;;;;104.63;100.13;;;;;;;28.18;47.94;101601.19;10460056;28;20095;-66
2023/09/07 16:23:29;;;;;;;100.25;95.60;;;;;;;28.11;48.18;101607.13;10456160;28;20424;-66
2023/09/07 16:28:29;;;;;;;141.80;135.20;;;;;;;28.03;49.03;101599.44;10455657;28;20113;-67
2023/09/07 16:33:30;;;;;;;84.10;80.60;;;;;;;27.92;49.70;101607.09;10455741;28;20123;-67
2023/09/07 16:38:30;;;;;;;95.20;90.82;;;;;;;27.93;49.66;101611.53;10472511;28;20497;-67
2023/09/07 16:43:31;;;;;;;85.85;82.07;;;;;;;27.80;50.27;101598.34;10455236;28;20076;-67
2023/09/07 16:48:32;;;;;;;156.77;150.07;;;;;;;27.70;50.81;101607.59;10456949;28;20040;-66
2023/09/07 16:53:32;;;;;;;357.50;338.55;;;;;;;27.58;51.26;101605.22;10457197;28;20112;-66
2023/09/07 16:58:33;;;;;;;104.50;100.10;;;;;;;27.65;51.35;101612.41;10454485;28;20060;-66
2023/09/07 17:03:33;;;;;;;182.38;173.73;;;;;;;27.54;52.25;101606.94;10456026;28;20021;-66
2023/09/07 17:08:34;;;;;;;164.30;157.43;;;;;;;27.40;53.31;101603.19;10455320;28;20029;-66
2023/09/07 17:13:34;;;;;;;137.77;132.18;;;;;;;27.40;52.95;101611.53;10457365;28;20460;-67
2023/09/07 17:18:35;;;;;;;142.15;136.20;;;;;;;27.31;53.70;101616.06;10438957;28;20498;-66
2023/09/07 17:23:35;;;;;;;169.35;162.57;;;;;;;27.22;54.37;101620.59;10455302;28;20021;-66
2023/09/07 17:28:36;;;;;;;157.88;151.48;;;;;;;27.16;55.01;101619.03;10453164;28;20036;-66
2023/09/07 17:33:36;;;;;;;148.35;142.40;;;;;;;27.07;54.78;101610.44;10455403;28;20132;-67
2023/09/07 17:38:36;;;;;;;169.35;162.25;;;;;;;26.92;54.76;101616.13;10453894;28;20507;-67
2023/09/07 17:43:37;;;;;;;193.00;184.80;;;;;;;26.79;55.39;101623.16;10454207;28;20096;-66
2023/09/07 17:48:39;;;;;;;245.63;235.65;;;;;;;26.58;56.09;101626.09;10454091;28;20136;-67
2023/09/07 17:53:39;;;;;;;209.02;199.95;;;;;;;26.36;55.42;101623.69;10454127;28;20031;-67
2023/09/07 17:58:41;;;;;;;238.52;228.10;;;;;;;26.14;55.50;101624.09;10452543;28;20040;-66
2023/09/07 18:03:41;;;;;;;227.30;217.65;;;;;;;25.93;56.77;101614.19;10436439;28;20516;-67
2023/09/07 18:08:42;;;;;;;254.93;243.98;;;;;;;25.75;57.38;101627.53;10452672;28;20067;-67
2023/09/07 18:13:42;;;;;;;281.92;270.08;;;;;;;25.53;57.46;101629.81;10453823;28;20025;-67
2023/09/07 18:18:43;;;;;;;289.13;276.73;;;;;;;25.34;57.88;101623.19;10452610;28;20128;-66
2023/09/07 18:23:43;;;;;;;275.15;263.50;;;;;;;25.13;59.27;101633.44;10453061;28;20036;-67
2023/09/07 18:28:43;;;;;;;260.92;249.60;;;;;;;25.01;60.74;101622.59;10453699;28;20053;-67
2023/09/07 18:33:44;;;;;;;225.75;216.20;;;;;;;24.89;66.35;101633.13;10454588;28;20039;-66
2023/09/07 18:38:44;;;;;;;190.82;182.90;;;;;;;24.86;68.62;101639.25;10452794;28;20481;-68
2023/09/07 18:43:45;;;;;;;153.98;147.38;;;;;;;24.74;70.32;101639.50;10453372;28;20053;-67
2023/09/07 18:48:45;;;;;;;169.25;162.43;;;;;;;24.63;71.62;101643.34;10453702;28;20139;-67
2023/09/07 18:53:45;;;;;;;157.82;151.25;;;;;;;24.47;68.25;101648.00;10452951;28;20123;-66
2023/09/07 18:58:46;;;;;;;227.75;218.05;;;;;;;24.29;66.25;101652.09;10454336;28;20049;-67
2023/09/07 19:03:50;;;;;;;324.02;309.95;;;;;;;24.07;65.59;101643.97;10435581;28;20527;-67
2023/09/07 19:08:51;;;;;;;631.65;595.67;;;;;;;23.85;65.81;101657.97;10458670;28;20033;-68
2023/09/07 19:13:51;;;;;;;566.35;535.75;;;;;;;23.69;65.52;101651.53;10460504;28;20029;-67
2023/09/07 19:18:52;;;;;;;131.18;124.75;;;;;;;23.50;66.29;101648.31;10459574;28;20044;-66
2023/09/07 19:23:52;;;;;;;142.60;136.32;;;;;;;23.39;66.26;101658.47;10474851;28;20515;-69
2023/09/07 19:28:53;;;;;;;139.52;133.65;;;;;;;23.24;67.00;101655.59;10457938;28;20107;-67
2023/09/07 19:33:53;;;;;;;248.80;237.68;;;;;;;23.19;68.88;101645.31;10460315;28;20029;-68
2023/09/07 19:38:56;;;;;;;217.07;206.93;;;;;;;23.12;68.60;101652.19;10460431;28;20467;-66
2023/09/07 19:43:57;;;;;;;491.65;467.40;;;;;;;23.00;68.31;101665.31;10459134;28;20045;-65
2023/09/07 19:48:57;;;;;;;572.35;542.17;;;;;;;22.79;68.43;101662.34;10458568;28;20044;-68
2023/09/07 19:53:58;;;;;;;560.33;530.95;;;;;;;22.65;68.88;101658.31;10458327;28;20453;-66
2023/09/07 19:58:59;;;;;;;654.35;617.10;;;;;;;22.56;70.09;101651.59;10460016;28;20346;-66
2023/09/07 20:03:59;;;;;;;673.55;635.08;;;;;;;22.57;70.78;101661.56;10440284;28;20025;-68
2023/09/07 20:09:00;;;;;;;635.60;599.58;;;;;;;22.50;71.66;101661.75;10457543;28;20029;-67
2023/09/07 20:14:00;;;;;;;674.80;635.80;;;;;;;22.53;73.97;101666.78;10458806;28;20230;-67
2023/09/07 20:19:00;;;;;;;668.47;629.63;;;;;;;22.52;74.05;101662.31;10458016;28;20029;-67
2023/09/07 20:24:01;;;;;;;652.33;614.65;;;;;;;22.44;73.54;101666.38;10456288;28;20029;-66
2023/09/07 20:29:01;;;;;;;640.65;603.92;;;;;;;22.27;73.98;101665.59;10455890;28;20064;-66
2023/09/07 20:34:02;;;;;;;659.33;620.70;;;;;;;22.22;74.77;101663.63;10422322;28;20045;-67
2023/09/07 20:39:02;;;;;;;663.17;624.22;;;;;;;22.16;74.10;101663.84;10457416;28;20081;-66
2023/09/07 20:44:03;;;;;;;661.85;623.72;;;;;;;22.03;74.33;101665.84;10456128;28;20394;-67
2023/09/07 20:49:03;;;;;;;672.15;633.13;;;;;;;21.94;74.58;101663.78;10455881;28;20055;-67
2023/09/07 20:54:04;;;;;;;676.42;636.58;;;;;;;21.86;74.96;101653.19;10456089;28;20037;-66
2023/09/07 20:59:06;;;;;;;665.42;626.50;;;;;;;21.75;75.12;101658.56;10455772;28;20047;-67
2023/09/07 21:04:06;;;;;;;658.08;619.70;;;;;;;21.61;75.39;101657.25;10454483;28;20476;-67
2023/09/07 21:09:07;;;;;;;652.95;615.20;;;;;;;21.49;75.83;101657.34;10456198;28;20053;-66
2023/09/07 21:14:07;;;;;;;666.70;626.50;;;;;;;21.36;76.19;101646.69;10455861;28;20124;-67
2023/09/07 21:19:08;;;;;;;659.65;620.85;;;;;;;21.23;76.78;101645.06;10455465;28;20108;-66
2023/09/07 21:24:08;;;;;;;655.08;616.65;;;;;;;21.07;77.30;101645.91;10455258;28;20044;-68
2023/09/07 21:29:09;;;;;;;645.15;606.63;;;;;;;20.96;78.01;101644.88;10454486;28;20067;-66
2023/09/07 21:34:09;;;;;;;594.60;560.28;;;;;;;20.88;78.69;101653.56;10454035;28;20041;-65
2023/09/07 21:39:10;;;;;;;542.55;512.28;;;;;;;20.80;79.09;101651.19;10455890;28;20061;-67
2023/09/07 21:44:10;;;;;;;421.00;396.90;;;;;;;20.72;79.50;101648.84;10453319;28;20381;-66
2023/09/07 21:49:12;;;;;;;341.45;323.48;;;;;;;20.67;80.27;101646.81;10455178;28;20040;-66
2023/09/07 21:54:12;;;;;;;419.85;396.90;;;;;;;20.63;80.66;101652.00;10436037;28;20045;-66
2023/09/07 21:59:12;;;;;;;466.23;440.40;;;;;;;20.62;81.26;101641.25;10453621;28;20044;-67
2023/09/07 22:04:13;;;;;;;508.48;480.00;;;;;;;20.54;81.54;101645.22;10454167;28;20102;-66